Lakeside, Virginia
Current Conditions -  °F | °C
As of 4:54 AM on Sunday 26 Oct 2014 (Local Time) from KOFP Reporting Station
Clear Clear  
Wind Chill: 56°   Ceiling: Unl
Heat Index: 56°   Visibility: 10mi
Dew Point: 48°   Wind: 6mph
Humidity: 75%   Direction: 260°W
Pressure: 29.75"   Gusts: NA
Location:  37.61°N, 77.48°W
Report Text: KOFP 260854Z AUTO 26005KT 10SM CLR 13/09 A2975 RMK AO2 SLP072 T01330089 55004
Loading
Personal Weather Stations






























Interactive Weather Map
Tropical Storm Tracking
New forecast layout! Learn more

10-Day Weather Forecast

Advertisements
Track Severe Weather on mobile